Aviation Digital Data Service (ADDS)

Output produced by METARs form (2042 UTC 09 February 2016)
found at http://www.aviationweather.gov/adds/metars/
 
KMDT 091956Z 00000KT 3/4SM R13/2400V4500FT -SN BR BKN006 OVC012 00/M01 A2954 RMK AO2 SLP007 P0004 T00001011
KMDT 091856Z 00000KT 1/2SM R13/3500V5500FT SN FZFG FEW006 OVC014 M01/M02 A2954 RMK AO2 TWR VIS 3/4 SLP007 P0003 T10061022
KMDT 091756Z 00000KT 1/2SM R13/3500V4500FT -SN FZFG SCT005 OVC011 M01/M02 A2955 RMK AO2 TWR VIS 3/4 SLP009 4/004 P0006 60029 T10061017 11006 21006 56014
KMDT 091753Z 00000KT 1/2SM R13/3500V4500FT -SN FZFG FEW005 OVC011 M01/M02 A2955 RMK AO2 TWR VIS 3/4 P0006
KMDT 091729Z 00000KT 1/4SM R13/2000V3500FT SN FZFG VV006 M01/M02 A2956 RMK AO2 TWR VIS 3/4 P0004 T10061017
KMDT 091716Z 00000KT 1/4SM R13/1600V2000FT +SN FZFG VV006 M01/M02 A2956 RMK AO2 TWR VIS 3/4 P0003 T10061017
KMDT 091656Z 00000KT 1/4SM R13/2200V2600FT SN FZFG VV008 M01/M02 A2957 RMK AO2 TWR VIS 3/4 SLP016 SNINCR1/4 P0008 T10061017
KMDT 091556Z 06004KT 1/4SM R13/2400V2800FT +SN FZFG VV007 M01/M02 A2959 RMK AO2 TWR VIS 3/4 SLP022 SNINCR 1/3 P0006 T10061022
KMDT 091507Z 08005KT 1/4SM R13/2600V2800FT SN FZFG BKN005 OVC010 M01/M02 A2960 RMK AO2 TWR VIS 3/4 P0001 T10061022
KMDT 091456Z 05003KT 1/4SM R13/3000V4000FT SN FZFG SCT005 OVC012 M01/M02 A2960 RMK AO2 TWR VIS 3/4 SLP026 P0004 60009 T10061017 58001
KMDT 091423Z 09005KT 1/4SM R13/3500FT SN FZFG FEW008 OVC012 M01/M02 A2960 RMK AO2 TWR VIS 1 P0001 T10061022
KMDT 091410Z 09007KT 1/2SM R13/4000FT SN FZFG VV013 M01/M02 A2961 RMK AO2 TWR VIS 1 P0001 T10061022
KMDT 091356Z 10007KT 1/2SM R13/4000V5000FT -SN FEW009 OVC015 M01/M02 A2961 RMK AO2 TWR VIS 1 SLP029 P0002 T10061022
KMDT 091353Z 09006KT 1/2SM R13/4500V5000FT -SN VV015 M01/M02 A2961 RMK AO2 TWR VIS 1 P0002
KMDT 091352Z 09006KT 3/4SM R13/4500V5000FT -SN VV015 M01/M02 A2961 RMK AO2 TWR VIS 1 P0002
KMDT 091345Z 09007KT 1/2SM R13/4500V5000FT -SN BKN014 OVC024 M01/M02 A2961 RMK AO2 TWR VIS 1 P0001 T10061022
KMDT 091343Z 09007KT 3/4SM R13/4500V5000FT -SN FEW009 BKN016 OVC024 M01/M02 A2961 RMK AO2 TWR VIS 1 P0001 T10061017
KMDT 091341Z 09006KT 1/2SM R13/4500V5000FT -SN BKN014 OVC024 M01/M02 A2961 RMK AO2 TWR VIS 1 P0001 T10061022
KMDT 091318Z 09006KT 3/4SM R13/5000V6000FT -SN FEW009 SCT016 OVC024 M01/M02 A2960 RMK AO2 TWR VIS 1 P0001 T10061017
KMDT 091259Z 09005KT 3/4SM R13/6000VP6000FT -SN SCT012 OVC023 M01/M02 A2960 RMK AO2 TWR VIS 1 P0000 T10061022
KMDT 091256Z 09007KT 1/2SM R13/5000VP6000FT -SN FEW009 BKN012 OVC023 M01/M02 A2960 RMK AO2 TWR VIS 1 SLP027 P0003 T10061022
KMDT 091243Z 09006KT 1/2SM R13/5000FT -SN VV010 M01/M02 A2960 RMK AO2 TWR VIS 1 P0002 T10061022
KMDT 091224Z 09007KT 1/2SM R13/6000VP6000FT -SN OVC008 M01/M02 A2960 RMK AO2 TWR VIS 1 P0001 T10061022
KMDT 091156Z 09008KT 1 1/4SM -SN OVC008 M01/M02 A2959 RMK AO2 TWR VIS 2 1/2 CIG 005V013 SLP025 P0002 60004 70012 T10061022 10011 21006 53001
KMDT 091124Z 10008KT 1 1/4SM -SN OVC008 M01/M02 A2959 RMK AO2 TWR VIS 3 P0000 T10061022
KMDT 091113Z 10008KT 2 1/2SM -SN OVC008 00/M02 A2959 RMK AO2 P0000 T00001022
KMDT 091056Z 10008KT 4SM -SN OVC008 00/M02 A2959 RMK AO2 SLP022 P0000 T00001022
KMDT 090956Z 10008KT 5SM -SN OVC009 00/M02 A2958 RMK AO2 CIG 007V011 SLP020 SN VRY LGT P0001 T00001022
KMDT 090856Z 10009KT 4SM -SN OVC008 00/M02 A2959 RMK AO2 SLP023 P0000 60001 T00001017 58011
KMDT 090756Z 11010KT 6SM -SN OVC009 01/M01 A2961 RMK AO2 SLP030 P0000 T00061011
KMDT 090656Z 13010KT 3SM -SN OVC010 01/M01 A2962 RMK AO2 CIG 006V012 SLP034 P0001 T00061011
KMDT 090653Z 13012KT 3SM -SN OVC008 01/M01 A2962 RMK AO2 CIG 006V012 P0001
KMDT 090556Z 12006KT 1 1/2SM -SN OVC006 01/M01 A2964 RMK AO2 SLP038 P0002 60008 T00061006 10033 20006 56017
KMDT 090456Z 13008KT 2SM -SN OVC006 01/M01 A2965 RMK AO2 CIG 005V011 SLP044 P0002 T00111006 400671028
KMDT 090356Z 11005KT 2SM -SN OVC006 01/00 A2967 RMK AO2 RAE40 CIG 004V009 SLP050 P0002 T00110000
KMDT 090304Z 11006KT 2 1/2SM -SNRA OVC006 01/M01 A2969 RMK AO2 P0000 T00111006
KMDT 090256Z 11007KT 3SM -SNRA BR OVC006 01/00 A2969 RMK AO2 RAE36B48 SLP056 P0002 60002 T00110000 58003
KMDT 090242Z 11007KT 3SM -SN BR OVC008 01/00 A2969 RMK AO2 RAE36 CIG 005V011 P0002 T00110000
KMDT 090211Z 12007KT 4SM -SNRA BR SCT009 OVC017 01/00 A2969 RMK AO2 P0001 T00110000
KMDT 090156Z 13009KT 5SM -SNRA BR OVC018 02/M01 A2970 RMK AO2 SNB55 SLP060 P0000 T00171006
KMDT 090056Z 12007KT 10SM -RA OVC020 02/M01 A2970 RMK AO2 RAE24B41 SLP060 PCPN VRY LGT P0000 T00221006
KMDT 082356Z 12012KT 10SM -RA OVC026 03/M02 A2970 RMK AO2 RAB32 SLP059 PCPN VRY LGT P0000 60000 T00331017 10067 20028 51010
KMDT 082348Z 12008KT 10SM -RA OVC026 03/M02 A2969 RMK AO2 RAB32 P0000 T00281017
KMDT 082256Z 11009KT 10SM OVC044 04/M02 A2969 RMK AO2 SLP056 VIRGA OHD AND ALQDS T00391022
KMDT 082156Z 11006KT 10SM BKN045 OVC110 04/M02 A2968 RMK AO2 SLP054 T00441022
KMDT 082056Z 10009KT 10SM BKN044 BKN120 BKN250 05/M03 A2967 RMK AO2 SLP049 T00501028 58010
KMDT 081956Z 13007KT 10SM SCT037 BKN250 05/M03 A2968 RMK AO2 SLP054 T00501028
KMDT 081856Z 12004KT 10SM SCT037 BKN250 06/M03 A2969 RMK AO2 SLP055 T00561028
KMDT 081756Z 14006KT 10SM SCT034 BKN250 04/M03 A2970 RMK AO2 PRESFR SLP060 T00441028 10056 21028 58032
KMDT 081656Z 11007KT 10SM SCT250 04/M03 A2974 RMK AO2 SLP073 T00441033
KMDT 081556Z 09010KT 10SM BKN250 04/M03 A2977 RMK AO2 SLP084 T00391033
KMDT 081456Z 09008KT 10SM FEW029 03/M04 A2979 RMK AO2 SLP092 T00331044 58005
KMDT 081356Z 00000KT 7SM BKN250 01/M05 A2982 RMK AO2 SLP102 T00061050
KMDT 081256Z 33006KT 6SM HZ SCT120 BKN250 M02/M06 A2982 RMK AO2 SLP103 T10171056
KMDT 081156Z 31003KT 7SM SCT250 M03/M06 A2981 RMK AO2 SLP097 T10281056 11006 21028 53008
KMDT 081056Z 32007KT 9SM BKN250 M01/M06 A2979 RMK AO2 SLP092 T10111056
KMDT 080956Z 31010KT 10SM BKN250 M01/M05 A2977 RMK AO2 SLP085 T10111050
KMDT 080856Z 31012KT 10SM BKN250 M01/M04 A2978 RMK AO2 SLP088 T10061044 56021